sensor_id;sensor_type;location;lat;lon;timestamp;P1;durP1;ratioP1;P2;durP2;ratioP2
23119;SDS011;11729;50.836;4.330;2023-08-07T00:00:34;17.10;;;6.88;;
23119;SDS011;11729;50.836;4.330;2023-08-07T00:02:59;13.07;;;7.35;;
23119;SDS011;11729;50.836;4.330;2023-08-07T00:05:25;11.45;;;6.72;;
23119;SDS011;11729;50.836;4.330;2023-08-07T00:07:51;17.92;;;6.93;;
23119;SDS011;11729;50.836;4.330;2023-08-07T00:10:18;13.90;;;7.65;;
23119;SDS011;11729;50.836;4.330;2023-08-07T00:12:43;11.52;;;6.93;;
23119;SDS011;11729;50.836;4.330;2023-08-07T00:15:09;14.30;;;6.82;;
23119;SDS011;11729;50.836;4.330;2023-08-07T00:17:36;10.85;;;6.88;;
23119;SDS011;11729;50.836;4.330;2023-08-07T00:20:02;12.40;;;7.20;;
23119;SDS011;11729;50.836;4.330;2023-08-07T00:22:28;11.60;;;6.80;;
23119;SDS011;11729;50.836;4.330;2023-08-07T00:24:54;14.75;;;6.72;;
23119;SDS011;11729;50.836;4.330;2023-08-07T00:27:19;10.15;;;6.85;;
23119;SDS011;11729;50.836;4.330;2023-08-07T00:29:45;18.25;;;7.03;;
23119;SDS011;11729;50.836;4.330;2023-08-07T00:32:10;9.80;;;6.43;;
23119;SDS011;11729;50.836;4.330;2023-08-07T00:34:36;12.20;;;6.15;;
23119;SDS011;11729;50.836;4.330;2023-08-07T00:37:02;12.85;;;6.70;;
23119;SDS011;11729;50.836;4.330;2023-08-07T00:39:27;12.90;;;6.40;;
23119;SDS011;11729;50.836;4.330;2023-08-07T00:41:53;10.40;;;6.43;;
23119;SDS011;11729;50.836;4.330;2023-08-07T00:44:19;9.85;;;6.78;;
23119;SDS011;11729;50.836;4.330;2023-08-07T00:46:45;8.07;;;6.45;;
23119;SDS011;11729;50.836;4.330;2023-08-07T00:49:11;12.10;;;6.53;;
23119;SDS011;11729;50.836;4.330;2023-08-07T00:51:38;10.32;;;6.70;;
23119;SDS011;11729;50.836;4.330;2023-08-07T00:54:05;13.10;;;6.95;;
23119;SDS011;11729;50.836;4.330;2023-08-07T00:56:33;13.10;;;6.93;;
23119;SDS011;11729;50.836;4.330;2023-08-07T00:58:59;13.50;;;6.22;;
23119;SDS011;11729;50.836;4.330;2023-08-07T01:01:26;11.98;;;6.68;;
23119;SDS011;11729;50.836;4.330;2023-08-07T01:03:52;12.20;;;6.55;;
23119;SDS011;11729;50.836;4.330;2023-08-07T01:06:18;10.40;;;6.68;;
23119;SDS011;11729;50.836;4.330;2023-08-07T01:08:44;7.22;;;6.20;;
23119;SDS011;11729;50.836;4.330;2023-08-07T01:11:20;14.27;;;6.82;;
23119;SDS011;11729;50.836;4.330;2023-08-07T01:16:34;12.05;;;6.63;;
23119;SDS011;11729;50.836;4.330;2023-08-07T01:19:05;11.73;;;6.20;;
23119;SDS011;11729;50.836;4.330;2023-08-07T01:21:43;8.57;;;6.13;;
23119;SDS011;11729;50.836;4.330;2023-08-07T01:24:10;14.27;;;6.45;;
23119;SDS011;11729;50.836;4.330;2023-08-07T01:26:36;10.45;;;6.28;;
23119;SDS011;11729;50.836;4.330;2023-08-07T01:29:16;8.65;;;6.13;;
23119;SDS011;11729;50.836;4.330;2023-08-07T01:31:49;9.50;;;6.10;;
23119;SDS011;11729;50.836;4.330;2023-08-07T01:34:18;11.57;;;6.78;;
23119;SDS011;11729;50.836;4.330;2023-08-07T01:36:47;8.63;;;6.43;;
23119;SDS011;11729;50.836;4.330;2023-08-07T01:39:13;7.78;;;6.47;;
23119;SDS011;11729;50.836;4.330;2023-08-07T01:41:42;10.77;;;6.20;;
23119;SDS011;11729;50.836;4.330;2023-08-07T01:44:07;14.75;;;6.65;;
23119;SDS011;11729;50.836;4.330;2023-08-07T01:46:33;7.85;;;6.18;;
23119;SDS011;11729;50.836;4.330;2023-08-07T01:49:00;8.32;;;5.82;;
23119;SDS011;11729;50.836;4.330;2023-08-07T01:51:25;9.38;;;6.20;;
23119;SDS011;11729;50.836;4.330;2023-08-07T01:53:51;7.93;;;5.88;;
23119;SDS011;11729;50.836;4.330;2023-08-07T01:56:17;12.15;;;6.20;;
23119;SDS011;11729;50.836;4.330;2023-08-07T01:58:44;14.50;;;6.88;;
23119;SDS011;11729;50.836;4.330;2023-08-07T02:01:09;16.27;;;6.47;;
23119;SDS011;11729;50.836;4.330;2023-08-07T02:03:35;8.13;;;6.22;;
23119;SDS011;11729;50.836;4.330;2023-08-07T02:06:00;7.05;;;5.80;;
23119;SDS011;11729;50.836;4.330;2023-08-07T02:08:28;11.27;;;6.63;;
23119;SDS011;11729;50.836;4.330;2023-08-07T02:10:53;9.57;;;6.38;;
23119;SDS011;11729;50.836;4.330;2023-08-07T02:13:19;12.73;;;6.10;;
23119;SDS011;11729;50.836;4.330;2023-08-07T02:15:44;11.00;;;6.55;;
23119;SDS011;11729;50.836;4.330;2023-08-07T02:18:10;9.15;;;6.45;;
23119;SDS011;11729;50.836;4.330;2023-08-07T02:20:36;9.93;;;6.15;;
23119;SDS011;11729;50.836;4.330;2023-08-07T02:23:01;12.05;;;6.40;;
23119;SDS011;11729;50.836;4.330;2023-08-07T02:25:27;8.45;;;6.05;;
23119;SDS011;11729;50.836;4.330;2023-08-07T02:27:52;14.20;;;6.80;;
23119;SDS011;11729;50.836;4.330;2023-08-07T02:30:18;8.50;;;6.45;;
23119;SDS011;11729;50.836;4.330;2023-08-07T02:32:44;8.25;;;6.00;;
23119;SDS011;11729;50.836;4.330;2023-08-07T02:35:10;11.15;;;6.20;;
23119;SDS011;11729;50.836;4.330;2023-08-07T02:37:36;7.75;;;6.60;;
23119;SDS011;11729;50.836;4.330;2023-08-07T02:40:01;9.27;;;6.13;;
23119;SDS011;11729;50.836;4.330;2023-08-07T02:42:27;15.50;;;6.72;;
23119;SDS011;11729;50.836;4.330;2023-08-07T02:44:53;14.98;;;5.93;;
23119;SDS011;11729;50.836;4.330;2023-08-07T02:47:18;12.93;;;6.65;;
23119;SDS011;11729;50.836;4.330;2023-08-07T02:49:44;7.53;;;5.95;;
23119;SDS011;11729;50.836;4.330;2023-08-07T02:52:10;6.93;;;6.13;;
23119;SDS011;11729;50.836;4.330;2023-08-07T02:54:35;10.02;;;6.22;;
23119;SDS011;11729;50.836;4.330;2023-08-07T02:57:01;8.68;;;6.40;;
23119;SDS011;11729;50.836;4.330;2023-08-07T02:59:26;10.85;;;6.50;;
23119;SDS011;11729;50.836;4.330;2023-08-07T03:01:52;10.25;;;6.45;;
23119;SDS011;11729;50.836;4.330;2023-08-07T03:04:18;10.18;;;6.35;;
23119;SDS011;11729;50.836;4.330;2023-08-07T03:06:44;7.35;;;6.30;;
23119;SDS011;11729;50.836;4.330;2023-08-07T03:09:10;10.57;;;6.00;;
23119;SDS011;11729;50.836;4.330;2023-08-07T03:11:36;7.10;;;5.95;;
23119;SDS011;11729;50.836;4.330;2023-08-07T03:14:01;9.82;;;6.53;;
23119;SDS011;11729;50.836;4.330;2023-08-07T03:16:28;9.65;;;6.03;;
23119;SDS011;11729;50.836;4.330;2023-08-07T03:18:53;7.53;;;5.90;;
23119;SDS011;11729;50.836;4.330;2023-08-07T03:21:19;12.48;;;6.35;;
23119;SDS011;11729;50.836;4.330;2023-08-07T03:23:45;10.55;;;6.57;;
23119;SDS011;11729;50.836;4.330;2023-08-07T03:26:11;10.05;;;6.57;;
23119;SDS011;11729;50.836;4.330;2023-08-07T03:28:38;11.93;;;6.35;;
23119;SDS011;11729;50.836;4.330;2023-08-07T03:31:05;12.02;;;6.40;;
23119;SDS011;11729;50.836;4.330;2023-08-07T03:33:31;9.57;;;6.53;;
23119;SDS011;11729;50.836;4.330;2023-08-07T03:35:58;13.73;;;6.32;;
23119;SDS011;11729;50.836;4.330;2023-08-07T03:38:23;11.65;;;6.47;;
23119;SDS011;11729;50.836;4.330;2023-08-07T03:40:49;11.75;;;6.40;;
23119;SDS011;11729;50.836;4.330;2023-08-07T03:43:15;11.63;;;6.82;;
23119;SDS011;11729;50.836;4.330;2023-08-07T03:45:40;13.57;;;6.45;;
23119;SDS011;11729;50.836;4.330;2023-08-07T03:48:07;10.55;;;6.63;;
23119;SDS011;11729;50.836;4.330;2023-08-07T03:50:33;11.25;;;6.32;;
23119;SDS011;11729;50.836;4.330;2023-08-07T03:55:27;9.27;;;6.20;;
23119;SDS011;11729;50.836;4.330;2023-08-07T03:57:55;12.75;;;7.00;;
23119;SDS011;11729;50.836;4.330;2023-08-07T04:00:20;12.85;;;6.97;;
23119;SDS011;11729;50.836;4.330;2023-08-07T04:02:46;15.88;;;6.88;;
23119;SDS011;11729;50.836;4.330;2023-08-07T04:05:12;11.13;;;6.28;;
23119;SDS011;11729;50.836;4.330;2023-08-07T04:07:37;16.40;;;7.05;;
23119;SDS011;11729;50.836;4.330;2023-08-07T04:10:03;10.02;;;6.70;;
23119;SDS011;11729;50.836;4.330;2023-08-07T04:12:30;11.27;;;6.57;;
23119;SDS011;11729;50.836;4.330;2023-08-07T04:14:56;11.50;;;6.47;;
23119;SDS011;11729;50.836;4.330;2023-08-07T04:17:21;7.40;;;6.60;;
23119;SDS011;11729;50.836;4.330;2023-08-07T04:19:47;14.07;;;6.82;;
23119;SDS011;11729;50.836;4.330;2023-08-07T04:22:13;11.15;;;6.80;;
23119;SDS011;11729;50.836;4.330;2023-08-07T04:24:38;10.73;;;6.80;;
23119;SDS011;11729;50.836;4.330;2023-08-07T04:27:04;10.32;;;6.32;;
23119;SDS011;11729;50.836;4.330;2023-08-07T04:29:30;11.27;;;6.75;;
23119;SDS011;11729;50.836;4.330;2023-08-07T04:31:55;8.43;;;6.30;;
23119;SDS011;11729;50.836;4.330;2023-08-07T04:34:21;16.17;;;7.10;;
23119;SDS011;11729;50.836;4.330;2023-08-07T04:36:47;12.93;;;6.57;;
23119;SDS011;11729;50.836;4.330;2023-08-07T04:39:13;12.27;;;6.57;;
23119;SDS011;11729;50.836;4.330;2023-08-07T04:41:38;9.85;;;6.57;;
23119;SDS011;11729;50.836;4.330;2023-08-07T04:44:04;8.23;;;6.30;;
23119;SDS011;11729;50.836;4.330;2023-08-07T04:46:30;10.60;;;6.72;;
23119;SDS011;11729;50.836;4.330;2023-08-07T04:48:55;15.65;;;7.32;;
23119;SDS011;11729;50.836;4.330;2023-08-07T04:51:21;9.55;;;6.30;;
23119;SDS011;11729;50.836;4.330;2023-08-07T04:53:47;12.88;;;6.43;;
23119;SDS011;11729;50.836;4.330;2023-08-07T04:56:15;11.95;;;7.55;;
23119;SDS011;11729;50.836;4.330;2023-08-07T04:58:42;7.10;;;6.40;;
23119;SDS011;11729;50.836;4.330;2023-08-07T05:01:08;10.77;;;6.32;;
23119;SDS011;11729;50.836;4.330;2023-08-07T05:03:34;9.75;;;6.72;;
23119;SDS011;11729;50.836;4.330;2023-08-07T05:06:00;8.55;;;6.38;;
23119;SDS011;11729;50.836;4.330;2023-08-07T05:08:26;11.82;;;6.93;;
23119;SDS011;11729;50.836;4.330;2023-08-07T05:10:52;9.02;;;5.90;;
23119;SDS011;11729;50.836;4.330;2023-08-07T05:13:19;10.30;;;6.40;;
23119;SDS011;11729;50.836;4.330;2023-08-07T05:15:46;7.25;;;6.03;;
23119;SDS011;11729;50.836;4.330;2023-08-07T05:18:13;13.48;;;6.38;;
23119;SDS011;11729;50.836;4.330;2023-08-07T05:20:39;10.55;;;6.78;;
23119;SDS011;11729;50.836;4.330;2023-08-07T05:23:05;10.88;;;6.43;;
23119;SDS011;11729;50.836;4.330;2023-08-07T05:25:30;14.38;;;6.25;;
23119;SDS011;11729;50.836;4.330;2023-08-07T05:27:56;10.95;;;6.47;;
23119;SDS011;11729;50.836;4.330;2023-08-07T05:30:22;9.13;;;6.13;;
23119;SDS011;11729;50.836;4.330;2023-08-07T05:32:48;10.35;;;5.85;;
23119;SDS011;11729;50.836;4.330;2023-08-07T05:35:14;13.13;;;6.28;;
23119;SDS011;11729;50.836;4.330;2023-08-07T05:37:39;9.02;;;6.32;;
23119;SDS011;11729;50.836;4.330;2023-08-07T05:40:05;10.77;;;6.45;;
23119;SDS011;11729;50.836;4.330;2023-08-07T05:42:31;8.57;;;6.22;;
23119;SDS011;11729;50.836;4.330;2023-08-07T05:44:58;11.43;;;6.72;;
23119;SDS011;11729;50.836;4.330;2023-08-07T05:47:24;10.98;;;6.53;;
23119;SDS011;11729;50.836;4.330;2023-08-07T05:49:49;10.88;;;6.30;;
23119;SDS011;11729;50.836;4.330;2023-08-07T05:52:15;12.32;;;6.30;;
23119;SDS011;11729;50.836;4.330;2023-08-07T05:54:42;11.90;;;6.35;;
23119;SDS011;11729;50.836;4.330;2023-08-07T05:57:08;12.18;;;6.82;;
23119;SDS011;11729;50.836;4.330;2023-08-07T05:59:33;9.93;;;6.28;;
23119;SDS011;11729;50.836;4.330;2023-08-07T06:01:59;12.35;;;6.50;;
23119;SDS011;11729;50.836;4.330;2023-08-07T06:04:25;10.13;;;6.22;;
23119;SDS011;11729;50.836;4.330;2023-08-07T06:06:51;12.82;;;6.28;;
23119;SDS011;11729;50.836;4.330;2023-08-07T06:09:16;10.63;;;6.85;;
23119;SDS011;11729;50.836;4.330;2023-08-07T06:11:42;7.60;;;6.45;;
23119;SDS011;11729;50.836;4.330;2023-08-07T06:14:08;7.63;;;5.90;;
23119;SDS011;11729;50.836;4.330;2023-08-07T06:16:34;10.45;;;5.57;;
23119;SDS011;11729;50.836;4.330;2023-08-07T06:18:59;10.48;;;5.50;;
23119;SDS011;11729;50.836;4.330;2023-08-07T06:21:25;10.18;;;5.90;;
23119;SDS011;11729;50.836;4.330;2023-08-07T06:23:53;9.20;;;5.82;;
23119;SDS011;11729;50.836;4.330;2023-08-07T06:26:19;9.95;;;5.25;;
23119;SDS011;11729;50.836;4.330;2023-08-07T06:28:44;8.70;;;6.00;;
23119;SDS011;11729;50.836;4.330;2023-08-07T06:31:10;9.75;;;5.50;;
23119;SDS011;11729;50.836;4.330;2023-08-07T06:33:37;11.82;;;5.20;;
23119;SDS011;11729;50.836;4.330;2023-08-07T06:36:03;9.60;;;5.80;;
23119;SDS011;11729;50.836;4.330;2023-08-07T06:38:29;8.10;;;5.10;;
23119;SDS011;11729;50.836;4.330;2023-08-07T06:40:55;9.75;;;4.97;;
23119;SDS011;11729;50.836;4.330;2023-08-07T06:43:21;6.85;;;4.72;;
23119;SDS011;11729;50.836;4.330;2023-08-07T06:45:49;8.95;;;4.53;;
23119;SDS011;11729;50.836;4.330;2023-08-07T06:48:15;13.77;;;4.90;;
23119;SDS011;11729;50.836;4.330;2023-08-07T06:50:40;8.27;;;5.45;;
23119;SDS011;11729;50.836;4.330;2023-08-07T06:53:06;9.35;;;4.70;;
23119;SDS011;11729;50.836;4.330;2023-08-07T06:55:32;5.68;;;4.60;;
23119;SDS011;11729;50.836;4.330;2023-08-07T06:57:58;6.75;;;4.68;;
23119;SDS011;11729;50.836;4.330;2023-08-07T07:00:24;9.68;;;5.15;;
23119;SDS011;11729;50.836;4.330;2023-08-07T07:02:49;6.22;;;5.03;;
23119;SDS011;11729;50.836;4.330;2023-08-07T07:05:15;8.15;;;5.60;;
23119;SDS011;11729;50.836;4.330;2023-08-07T07:07:41;8.18;;;5.55;;
23119;SDS011;11729;50.836;4.330;2023-08-07T07:10:06;7.60;;;5.28;;
23119;SDS011;11729;50.836;4.330;2023-08-07T07:12:32;6.38;;;5.35;;
23119;SDS011;11729;50.836;4.330;2023-08-07T07:14:58;7.65;;;5.28;;
23119;SDS011;11729;50.836;4.330;2023-08-07T07:17:24;8.25;;;5.22;;
23119;SDS011;11729;50.836;4.330;2023-08-07T07:19:49;9.88;;;4.75;;
23119;SDS011;11729;50.836;4.330;2023-08-07T07:22:15;11.10;;;5.40;;
23119;SDS011;11729;50.836;4.330;2023-08-07T07:24:41;9.20;;;5.00;;
23119;SDS011;11729;50.836;4.330;2023-08-07T07:27:06;5.85;;;4.85;;
23119;SDS011;11729;50.836;4.330;2023-08-07T07:29:32;8.45;;;4.88;;
23119;SDS011;11729;50.836;4.330;2023-08-07T07:31:58;6.30;;;4.88;;
23119;SDS011;11729;50.836;4.330;2023-08-07T07:34:23;5.22;;;4.70;;
23119;SDS011;11729;50.836;4.330;2023-08-07T07:36:49;8.63;;;5.18;;
23119;SDS011;11729;50.836;4.330;2023-08-07T07:39:15;10.73;;;4.70;;
23119;SDS011;11729;50.836;4.330;2023-08-07T07:41:42;9.10;;;4.90;;
23119;SDS011;11729;50.836;4.330;2023-08-07T07:44:07;6.72;;;4.53;;
23119;SDS011;11729;50.836;4.330;2023-08-07T07:46:33;7.30;;;5.10;;
23119;SDS011;11729;50.836;4.330;2023-08-07T07:48:59;6.43;;;4.90;;
23119;SDS011;11729;50.836;4.330;2023-08-07T07:51:26;7.45;;;4.78;;
23119;SDS011;11729;50.836;4.330;2023-08-07T07:53:51;6.93;;;4.55;;
23119;SDS011;11729;50.836;4.330;2023-08-07T07:56:17;6.43;;;4.40;;
23119;SDS011;11729;50.836;4.330;2023-08-07T07:58:43;6.38;;;4.63;;
23119;SDS011;11729;50.836;4.330;2023-08-07T08:01:09;6.22;;;5.00;;
23119;SDS011;11729;50.836;4.330;2023-08-07T08:03:34;8.57;;;4.90;;
23119;SDS011;11729;50.836;4.330;2023-08-07T08:06:00;5.25;;;4.75;;
23119;SDS011;11729;50.836;4.330;2023-08-07T08:08:26;4.95;;;4.45;;
23119;SDS011;11729;50.836;4.330;2023-08-07T08:10:51;6.03;;;4.50;;
23119;SDS011;11729;50.836;4.330;2023-08-07T08:13:17;6.80;;;4.70;;
23119;SDS011;11729;50.836;4.330;2023-08-07T08:15:43;5.38;;;4.68;;
23119;SDS011;11729;50.836;4.330;2023-08-07T08:18:11;6.83;;;4.67;;
23119;SDS011;11729;50.836;4.330;2023-08-07T08:20:37;5.47;;;4.47;;
23119;SDS011;11729;50.836;4.330;2023-08-07T08:23:03;6.50;;;4.53;;
23119;SDS011;11729;50.836;4.330;2023-08-07T08:25:30;5.30;;;4.23;;
23119;SDS011;11729;50.836;4.330;2023-08-07T08:27:57;8.38;;;5.00;;
23119;SDS011;11729;50.836;4.330;2023-08-07T08:30:24;7.00;;;4.68;;
23119;SDS011;11729;50.836;4.330;2023-08-07T08:32:50;5.72;;;4.47;;
23119;SDS011;11729;50.836;4.330;2023-08-07T08:35:17;10.70;;;4.60;;
23119;SDS011;11729;50.836;4.330;2023-08-07T08:37:42;9.35;;;4.40;;
23119;SDS011;11729;50.836;4.330;2023-08-07T08:40:08;8.45;;;5.03;;
23119;SDS011;11729;50.836;4.330;2023-08-07T08:42:41;6.97;;;4.70;;
23119;SDS011;11729;50.836;4.330;2023-08-07T08:45:08;8.55;;;4.90;;
23119;SDS011;11729;50.836;4.330;2023-08-07T08:47:37;5.93;;;5.00;;
23119;SDS011;11729;50.836;4.330;2023-08-07T08:50:05;5.25;;;4.43;;
23119;SDS011;11729;50.836;4.330;2023-08-07T08:52:34;7.97;;;4.80;;
23119;SDS011;11729;50.836;4.330;2023-08-07T08:55:02;7.45;;;4.55;;
23119;SDS011;11729;50.836;4.330;2023-08-07T08:57:28;7.22;;;4.68;;
23119;SDS011;11729;50.836;4.330;2023-08-07T08:59:55;5.60;;;4.90;;
23119;SDS011;11729;50.836;4.330;2023-08-07T09:02:22;8.05;;;5.47;;
23119;SDS011;11729;50.836;4.330;2023-08-07T09:04:47;7.05;;;4.63;;
23119;SDS011;11729;50.836;4.330;2023-08-07T09:07:14;8.38;;;4.82;;
23119;SDS011;11729;50.836;4.330;2023-08-07T09:09:43;8.85;;;5.28;;
23119;SDS011;11729;50.836;4.330;2023-08-07T09:12:14;5.68;;;4.80;;
23119;SDS011;11729;50.836;4.330;2023-08-07T09:14:44;6.72;;;5.03;;
23119;SDS011;11729;50.836;4.330;2023-08-07T09:17:14;5.38;;;4.88;;
23119;SDS011;11729;50.836;4.330;2023-08-07T09:19:42;6.03;;;5.18;;
23119;SDS011;11729;50.836;4.330;2023-08-07T09:22:08;6.15;;;4.75;;
23119;SDS011;11729;50.836;4.330;2023-08-07T09:24:35;5.93;;;5.22;;
23119;SDS011;11729;50.836;4.330;2023-08-07T09:27:01;5.15;;;4.68;;
23119;SDS011;11729;50.836;4.330;2023-08-07T09:29:27;5.13;;;4.70;;
23119;SDS011;11729;50.836;4.330;2023-08-07T09:31:56;5.85;;;4.57;;
23119;SDS011;11729;50.836;4.330;2023-08-07T09:34:21;6.90;;;4.57;;
23119;SDS011;11729;50.836;4.330;2023-08-07T09:36:48;5.05;;;4.35;;
23119;SDS011;11729;50.836;4.330;2023-08-07T09:39:13;5.18;;;4.70;;
23119;SDS011;11729;50.836;4.330;2023-08-07T09:41:39;6.07;;;4.78;;
23119;SDS011;11729;50.836;4.330;2023-08-07T09:44:09;4.93;;;4.50;;
23119;SDS011;11729;50.836;4.330;2023-08-07T09:46:42;7.25;;;4.93;;
23119;SDS011;11729;50.836;4.330;2023-08-07T09:49:08;9.20;;;5.25;;
23119;SDS011;11729;50.836;4.330;2023-08-07T09:51:43;9.70;;;5.43;;
23119;SDS011;11729;50.836;4.330;2023-08-07T09:54:10;8.23;;;5.00;;
23119;SDS011;11729;50.836;4.330;2023-08-07T09:56:36;7.65;;;4.82;;
23119;SDS011;11729;50.836;4.330;2023-08-07T09:59:04;5.53;;;4.70;;
23119;SDS011;11729;50.836;4.330;2023-08-07T10:01:30;6.45;;;4.63;;
23119;SDS011;11729;50.836;4.330;2023-08-07T10:03:55;6.15;;;4.50;;
23119;SDS011;11729;50.836;4.330;2023-08-07T10:06:22;4.85;;;4.45;;
23119;SDS011;11729;50.836;4.330;2023-08-07T10:08:48;5.22;;;4.72;;
23119;SDS011;11729;50.836;4.330;2023-08-07T10:11:14;6.65;;;4.45;;
23119;SDS011;11729;50.836;4.330;2023-08-07T10:13:41;5.30;;;4.07;;
23119;SDS011;11729;50.836;4.330;2023-08-07T10:16:07;4.82;;;4.43;;
23119;SDS011;11729;50.836;4.330;2023-08-07T10:18:33;7.13;;;4.38;;
23119;SDS011;11729;50.836;4.330;2023-08-07T10:21:00;6.15;;;4.32;;
23119;SDS011;11729;50.836;4.330;2023-08-07T10:23:27;8.32;;;4.63;;
23119;SDS011;11729;50.836;4.330;2023-08-07T10:25:53;5.90;;;4.95;;
23119;SDS011;11729;50.836;4.330;2023-08-07T10:28:20;5.53;;;4.93;;
23119;SDS011;11729;50.836;4.330;2023-08-07T10:33:14;5.00;;;4.60;;
23119;SDS011;11729;50.836;4.330;2023-08-07T10:35:47;5.63;;;4.60;;
23119;SDS011;11729;50.836;4.330;2023-08-07T10:38:13;4.90;;;4.40;;
23119;SDS011;11729;50.836;4.330;2023-08-07T10:40:57;5.30;;;4.40;;
23119;SDS011;11729;50.836;4.330;2023-08-07T10:43:25;4.10;;;3.80;;
23119;SDS011;11729;50.836;4.330;2023-08-07T10:48:18;4.32;;;4.03;;
23119;SDS011;11729;50.836;4.330;2023-08-07T10:50:55;4.82;;;4.43;;
23119;SDS011;11729;50.836;4.330;2023-08-07T10:53:32;5.43;;;4.40;;
23119;SDS011;11729;50.836;4.330;2023-08-07T10:56:07;7.20;;;4.30;;
23119;SDS011;11729;50.836;4.330;2023-08-07T10:58:35;4.80;;;4.30;;
23119;SDS011;11729;50.836;4.330;2023-08-07T11:03:53;7.78;;;4.35;;
23119;SDS011;11729;50.836;4.330;2023-08-07T11:06:25;4.68;;;4.20;;
23119;SDS011;11729;50.836;4.330;2023-08-07T11:08:53;4.95;;;4.50;;
23119;SDS011;11729;50.836;4.330;2023-08-07T11:11:19;4.35;;;3.80;;
23119;SDS011;11729;50.836;4.330;2023-08-07T11:13:45;4.50;;;4.10;;
23119;SDS011;11729;50.836;4.330;2023-08-07T11:16:11;4.47;;;4.07;;
23119;SDS011;11729;50.836;4.330;2023-08-07T11:18:37;4.28;;;3.97;;
23119;SDS011;11729;50.836;4.330;2023-08-07T11:21:06;5.38;;;4.30;;
23119;SDS011;11729;50.836;4.330;2023-08-07T11:23:33;7.35;;;4.25;;
23119;SDS011;11729;50.836;4.330;2023-08-07T11:26:01;5.25;;;4.22;;
23119;SDS011;11729;50.836;4.330;2023-08-07T11:28:28;6.80;;;4.30;;
23119;SDS011;11729;50.836;4.330;2023-08-07T11:30:54;4.50;;;4.10;;
23119;SDS011;11729;50.836;4.330;2023-08-07T11:33:23;4.77;;;4.37;;
23119;SDS011;11729;50.836;4.330;2023-08-07T11:35:50;4.82;;;4.32;;
23119;SDS011;11729;50.836;4.330;2023-08-07T11:38:29;6.72;;;3.90;;
23119;SDS011;11729;50.836;4.330;2023-08-07T11:41:05;4.07;;;3.72;;
23119;SDS011;11729;50.836;4.330;2023-08-07T11:43:35;4.45;;;3.90;;
23119;SDS011;11729;50.836;4.330;2023-08-07T11:46:02;4.88;;;4.30;;
23119;SDS011;11729;50.836;4.330;2023-08-07T11:48:35;4.85;;;4.40;;
23119;SDS011;11729;50.836;4.330;2023-08-07T11:51:03;5.05;;;4.55;;
23119;SDS011;11729;50.836;4.330;2023-08-07T11:55:57;6.65;;;4.20;;
23119;SDS011;11729;50.836;4.330;2023-08-07T11:58:25;4.05;;;3.72;;
23119;SDS011;11729;50.836;4.330;2023-08-07T12:01:12;5.90;;;4.10;;
23119;SDS011;11729;50.836;4.330;2023-08-07T12:03:38;6.03;;;4.10;;
23119;SDS011;11729;50.836;4.330;2023-08-07T12:06:08;4.60;;;4.18;;
23119;SDS011;11729;50.836;4.330;2023-08-07T12:08:35;4.22;;;3.92;;
23119;SDS011;11729;50.836;4.330;2023-08-07T12:11:02;4.13;;;3.80;;
23119;SDS011;11729;50.836;4.330;2023-08-07T12:13:29;6.55;;;4.05;;
23119;SDS011;11729;50.836;4.330;2023-08-07T12:15:56;4.60;;;4.20;;
23119;SDS011;11729;50.836;4.330;2023-08-07T12:18:23;5.00;;;4.43;;
23119;SDS011;11729;50.836;4.330;2023-08-07T12:20:52;4.30;;;3.90;;
23119;SDS011;11729;50.836;4.330;2023-08-07T12:23:21;4.90;;;4.30;;
23119;SDS011;11729;50.836;4.330;2023-08-07T12:25:47;5.00;;;4.20;;
23119;SDS011;11729;50.836;4.330;2023-08-07T12:28:15;4.20;;;3.90;;
23119;SDS011;11729;50.836;4.330;2023-08-07T12:30:42;4.47;;;3.95;;
23119;SDS011;11729;50.836;4.330;2023-08-07T12:33:11;4.88;;;4.20;;
23119;SDS011;11729;50.836;4.330;2023-08-07T12:35:37;4.47;;;4.18;;
23119;SDS011;11729;50.836;4.330;2023-08-07T12:38:04;4.40;;;4.00;;
23119;SDS011;11729;50.836;4.330;2023-08-07T12:40:30;6.30;;;3.75;;
23119;SDS011;11729;50.836;4.330;2023-08-07T12:42:56;4.45;;;3.90;;
23119;SDS011;11729;50.836;4.330;2023-08-07T12:45:23;4.80;;;4.03;;
23119;SDS011;11729;50.836;4.330;2023-08-07T12:47:48;4.10;;;3.70;;
23119;SDS011;11729;50.836;4.330;2023-08-07T12:50:14;4.32;;;3.92;;
23119;SDS011;11729;50.836;4.330;2023-08-07T12:52:40;4.30;;;3.90;;
23119;SDS011;11729;50.836;4.330;2023-08-07T12:55:06;4.70;;;4.20;;
23119;SDS011;11729;50.836;4.330;2023-08-07T12:57:32;4.50;;;4.20;;
23119;SDS011;11729;50.836;4.330;2023-08-07T12:59:58;6.28;;;4.35;;
23119;SDS011;11729;50.836;4.330;2023-08-07T13:02:24;4.30;;;3.95;;
23119;SDS011;11729;50.836;4.330;2023-08-07T13:04:50;4.40;;;4.03;;
23119;SDS011;11729;50.836;4.330;2023-08-07T13:07:17;4.63;;;4.22;;
23119;SDS011;11729;50.836;4.330;2023-08-07T13:09:43;5.93;;;4.18;;
23119;SDS011;11729;50.836;4.330;2023-08-07T13:12:09;5.60;;;4.70;;
23119;SDS011;11729;50.836;4.330;2023-08-07T13:14:34;4.97;;;4.50;;
23119;SDS011;11729;50.836;4.330;2023-08-07T13:17:00;4.82;;;4.30;;
23119;SDS011;11729;50.836;4.330;2023-08-07T13:19:25;5.00;;;3.97;;
23119;SDS011;11729;50.836;4.330;2023-08-07T13:21:51;4.00;;;3.80;;
23119;SDS011;11729;50.836;4.330;2023-08-07T13:24:17;4.15;;;3.88;;
23119;SDS011;11729;50.836;4.330;2023-08-07T13:26:42;4.10;;;3.80;;
23119;SDS011;11729;50.836;4.330;2023-08-07T13:29:11;3.88;;;3.58;;
23119;SDS011;11729;50.836;4.330;2023-08-07T13:31:38;4.30;;;3.90;;
23119;SDS011;11729;50.836;4.330;2023-08-07T13:34:03;7.00;;;3.78;;
23119;SDS011;11729;50.836;4.330;2023-08-07T13:36:33;4.47;;;4.18;;
23119;SDS011;11729;50.836;4.330;2023-08-07T13:39:00;7.00;;;4.28;;
23119;SDS011;11729;50.836;4.330;2023-08-07T13:41:26;5.05;;;4.15;;
23119;SDS011;11729;50.836;4.330;2023-08-07T13:43:52;4.40;;;4.00;;
23119;SDS011;11729;50.836;4.330;2023-08-07T13:46:19;4.57;;;3.80;;
23119;SDS011;11729;50.836;4.330;2023-08-07T13:48:45;5.22;;;4.35;;
23119;SDS011;11729;50.836;4.330;2023-08-07T13:51:11;5.10;;;4.68;;
23119;SDS011;11729;50.836;4.330;2023-08-07T13:53:37;4.78;;;4.03;;
23119;SDS011;11729;50.836;4.330;2023-08-07T13:56:02;4.78;;;4.38;;
23119;SDS011;11729;50.836;4.330;2023-08-07T13:58:28;3.95;;;3.60;;
23119;SDS011;11729;50.836;4.330;2023-08-07T14:00:55;4.30;;;3.70;;
23119;SDS011;11729;50.836;4.330;2023-08-07T14:03:21;4.28;;;3.90;;
23119;SDS011;11729;50.836;4.330;2023-08-07T14:05:46;4.00;;;3.70;;
23119;SDS011;11729;50.836;4.330;2023-08-07T14:08:14;4.20;;;3.90;;
23119;SDS011;11729;50.836;4.330;2023-08-07T14:10:39;5.13;;;4.30;;
23119;SDS011;11729;50.836;4.330;2023-08-07T14:13:06;4.03;;;3.70;;
23119;SDS011;11729;50.836;4.330;2023-08-07T14:15:32;6.57;;;4.05;;
23119;SDS011;11729;50.836;4.330;2023-08-07T14:17:58;3.83;;;3.53;;
23119;SDS011;11729;50.836;4.330;2023-08-07T14:20:25;3.85;;;3.65;;
23119;SDS011;11729;50.836;4.330;2023-08-07T14:22:51;4.32;;;3.92;;
23119;SDS011;11729;50.836;4.330;2023-08-07T14:25:16;4.18;;;3.72;;
23119;SDS011;11729;50.836;4.330;2023-08-07T14:27:42;4.53;;;4.10;;
23119;SDS011;11729;50.836;4.330;2023-08-07T14:30:08;4.50;;;4.20;;
23119;SDS011;11729;50.836;4.330;2023-08-07T14:32:34;4.40;;;4.10;;
23119;SDS011;11729;50.836;4.330;2023-08-07T14:34:59;3.90;;;3.60;;
23119;SDS011;11729;50.836;4.330;2023-08-07T14:37:25;4.47;;;3.72;;
23119;SDS011;11729;50.836;4.330;2023-08-07T14:39:50;4.38;;;4.07;;
23119;SDS011;11729;50.836;4.330;2023-08-07T14:42:16;4.25;;;3.80;;
23119;SDS011;11729;50.836;4.330;2023-08-07T14:44:42;4.18;;;3.78;;
23119;SDS011;11729;50.836;4.330;2023-08-07T14:47:07;5.43;;;3.90;;
23119;SDS011;11729;50.836;4.330;2023-08-07T14:49:33;4.30;;;4.00;;
23119;SDS011;11729;50.836;4.330;2023-08-07T14:51:59;4.55;;;4.05;;
23119;SDS011;11729;50.836;4.330;2023-08-07T14:54:24;4.25;;;3.85;;